sensor_id;sensor_type;location;lat;lon;timestamp;pressure;altitude;pressure_sealevel;temperature;humidity
36192;BME280;22233;42.708;23.360;2024-03-02T00:01:39;94842.34;;;10.71;71.92
36192;BME280;22233;42.708;23.360;2024-03-02T00:04:05;94832.28;;;10.33;72.42
36192;BME280;22233;42.708;23.360;2024-03-02T00:06:32;94851.09;;;10.47;71.76
36192;BME280;22233;42.708;23.360;2024-03-02T00:08:58;94851.31;;;10.25;72.41
36192;BME280;22233;42.708;23.360;2024-03-02T00:11:24;94853.28;;;10.63;71.39
36192;BME280;22233;42.708;23.360;2024-03-02T00:13:52;94832.09;;;10.47;71.07
36192;BME280;22233;42.708;23.360;2024-03-02T00:16:18;94846.34;;;10.35;71.93
36192;BME280;22233;42.708;23.360;2024-03-02T00:18:43;94845.03;;;10.50;71.91
36192;BME280;22233;42.708;23.360;2024-03-02T00:21:09;94846.56;;;10.60;71.36
36192;BME280;22233;42.708;23.360;2024-03-02T00:23:35;94808.41;;;10.56;70.96
36192;BME280;22233;42.708;23.360;2024-03-02T00:26:01;94844.41;;;10.74;70.63
36192;BME280;22233;42.708;23.360;2024-03-02T00:28:36;94836.72;;;10.76;70.78
36192;BME280;22233;42.708;23.360;2024-03-02T00:31:04;94839.72;;;10.84;71.03
36192;BME280;22233;42.708;23.360;2024-03-02T00:33:35;94815.00;;;10.76;70.37
36192;BME280;22233;42.708;23.360;2024-03-02T00:36:04;94832.81;;;10.95;70.22
36192;BME280;22233;42.708;23.360;2024-03-02T00:38:31;94836.88;;;10.80;71.46
36192;BME280;22233;42.708;23.360;2024-03-02T00:41:04;94828.59;;;10.47;72.61
36192;BME280;22233;42.708;23.360;2024-03-02T00:46:18;94825.16;;;10.88;70.70
36192;BME280;22233;42.708;23.360;2024-03-02T00:48:51;94820.81;;;10.66;70.99
36192;BME280;22233;42.708;23.360;2024-03-02T00:51:18;94827.94;;;10.79;70.96
36192;BME280;22233;42.708;23.360;2024-03-02T00:53:43;94831.16;;;10.73;71.55
36192;BME280;22233;42.708;23.360;2024-03-02T00:56:10;94822.97;;;10.82;70.42
36192;BME280;22233;42.708;23.360;2024-03-02T00:58:37;94821.00;;;11.12;70.06
36192;BME280;22233;42.708;23.360;2024-03-02T01:01:02;94818.53;;;10.98;70.43
36192;BME280;22233;42.708;23.360;2024-03-02T01:03:28;94826.91;;;10.93;70.03
36192;BME280;22233;42.708;23.360;2024-03-02T01:05:53;94823.19;;;11.18;69.15
36192;BME280;22233;42.708;23.360;2024-03-02T01:08:18;94815.56;;;10.91;70.11
36192;BME280;22233;42.708;23.360;2024-03-02T01:10:44;94826.66;;;11.28;68.77
36192;BME280;22233;42.708;23.360;2024-03-02T01:13:09;94828.81;;;10.92;69.80
36192;BME280;22233;42.708;23.360;2024-03-02T01:15:35;94818.19;;;11.29;69.36
36192;BME280;22233;42.708;23.360;2024-03-02T01:18:00;94803.50;;;11.22;69.45
36192;BME280;22233;42.708;23.360;2024-03-02T01:20:25;94790.78;;;11.34;69.03
36192;BME280;22233;42.708;23.360;2024-03-02T01:22:51;94814.56;;;11.58;68.64
36192;BME280;22233;42.708;23.360;2024-03-02T01:25:17;94803.16;;;11.44;68.22
36192;BME280;22233;42.708;23.360;2024-03-02T01:27:42;94813.91;;;11.62;68.89
36192;BME280;22233;42.708;23.360;2024-03-02T01:30:08;94808.00;;;11.59;69.09
36192;BME280;22233;42.708;23.360;2024-03-02T01:32:34;94814.56;;;11.58;68.64
36192;BME280;22233;42.708;23.360;2024-03-02T01:34:59;94799.56;;;11.52;68.92
36192;BME280;22233;42.708;23.360;2024-03-02T01:37:24;94804.19;;;11.73;69.00
36192;BME280;22233;42.708;23.360;2024-03-02T01:39:50;94781.00;;;11.54;67.97
36192;BME280;22233;42.708;23.360;2024-03-02T01:42:15;94805.28;;;11.59;68.20
36192;BME280;22233;42.708;23.360;2024-03-02T01:44:40;94806.22;;;11.64;68.84
36192;BME280;22233;42.708;23.360;2024-03-02T01:47:06;94795.34;;;11.43;69.01
36192;BME280;22233;42.708;23.360;2024-03-02T01:49:32;94798.09;;;11.55;69.14
36192;BME280;22233;42.708;23.360;2024-03-02T01:51:59;94781.41;;;11.44;69.66
36192;BME280;22233;42.708;23.360;2024-03-02T01:54:24;94779.28;;;11.29;69.12
36192;BME280;22233;42.708;23.360;2024-03-02T01:56:50;94792.97;;;11.41;69.24
36192;BME280;22233;42.708;23.360;2024-03-02T01:59:15;94786.66;;;11.28;68.89
36192;BME280;22233;42.708;23.360;2024-03-02T02:01:40;94794.41;;;11.38;68.98
36192;BME280;22233;42.708;23.360;2024-03-02T02:04:06;94786.94;;;11.35;69.38
36192;BME280;22233;42.708;23.360;2024-03-02T02:06:32;94797.34;;;11.33;68.90
36192;BME280;22233;42.708;23.360;2024-03-02T02:08:58;94798.72;;;11.18;71.03
36192;BME280;22233;42.708;23.360;2024-03-02T02:11:24;94782.06;;;10.78;71.37
36192;BME280;22233;42.708;23.360;2024-03-02T02:13:50;94778.38;;;11.04;70.26
36192;BME280;22233;42.708;23.360;2024-03-02T02:16:15;94789.00;;;11.17;70.32
36192;BME280;22233;42.708;23.360;2024-03-02T02:18:40;94796.16;;;11.01;71.10
36192;BME280;22233;42.708;23.360;2024-03-02T02:21:06;94791.66;;;11.05;70.96
36192;BME280;22233;42.708;23.360;2024-03-02T02:23:31;94795.09;;;11.14;70.47
36192;BME280;22233;42.708;23.360;2024-03-02T02:25:56;94797.22;;;11.09;71.25
36192;BME280;22233;42.708;23.360;2024-03-02T02:28:22;94773.09;;;11.07;70.75
36192;BME280;22233;42.708;23.360;2024-03-02T02:30:47;94792.44;;;11.27;70.08
36192;BME280;22233;42.708;23.360;2024-03-02T02:33:13;94780.91;;;11.30;70.69
36192;BME280;22233;42.708;23.360;2024-03-02T02:35:38;94789.38;;;11.28;70.19
36192;BME280;22233;42.708;23.360;2024-03-02T02:38:04;94788.13;;;11.05;71.12
36192;BME280;22233;42.708;23.360;2024-03-02T02:40:29;94775.41;;;11.17;70.33
36192;BME280;22233;42.708;23.360;2024-03-02T02:42:56;94774.00;;;11.11;69.84
36192;BME280;22233;42.708;23.360;2024-03-02T02:45:22;94783.28;;;11.10;71.66
36192;BME280;22233;42.708;23.360;2024-03-02T02:47:47;94788.31;;;10.99;71.40
36192;BME280;22233;42.708;23.360;2024-03-02T02:50:13;94771.56;;;10.97;70.71
36192;BME280;22233;42.708;23.360;2024-03-02T02:52:40;94776.25;;;10.88;71.11
36192;BME280;22233;42.708;23.360;2024-03-02T02:55:08;94775.75;;;10.95;70.96
36192;BME280;22233;42.708;23.360;2024-03-02T02:57:34;94780.56;;;10.89;70.79
36192;BME280;22233;42.708;23.360;2024-03-02T03:00:08;94772.66;;;10.75;71.22
36192;BME280;22233;42.708;23.360;2024-03-02T03:02:41;94783.66;;;10.79;71.53
36192;BME280;22233;42.708;23.360;2024-03-02T03:05:09;94784.47;;;10.79;71.30
36192;BME280;22233;42.708;23.360;2024-03-02T03:07:34;94789.88;;;10.79;71.57
36192;BME280;22233;42.708;23.360;2024-03-02T03:10:02;94794.09;;;10.68;71.70
36192;BME280;22233;42.708;23.360;2024-03-02T03:12:28;94766.47;;;10.66;71.74
36192;BME280;22233;42.708;23.360;2024-03-02T03:14:54;94791.63;;;10.84;71.62
36192;BME280;22233;42.708;23.360;2024-03-02T03:17:21;94786.31;;;10.88;71.60
36192;BME280;22233;42.708;23.360;2024-03-02T03:19:46;94772.09;;;10.91;71.51
36192;BME280;22233;42.708;23.360;2024-03-02T03:22:12;94783.50;;;11.05;71.54
36192;BME280;22233;42.708;23.360;2024-03-02T03:24:38;94785.47;;;10.75;71.54
36192;BME280;22233;42.708;23.360;2024-03-02T03:27:04;94789.88;;;10.79;71.66
36192;BME280;22233;42.708;23.360;2024-03-02T03:29:29;94785.78;;;10.94;71.41
36192;BME280;22233;42.708;23.360;2024-03-02T03:31:54;94781.03;;;10.91;72.55
36192;BME280;22233;42.708;23.360;2024-03-02T03:34:20;94782.75;;;10.96;70.66
36192;BME280;22233;42.708;23.360;2024-03-02T03:36:45;94762.00;;;10.91;71.23
36192;BME280;22233;42.708;23.360;2024-03-02T03:39:10;94794.47;;;10.58;73.23
36192;BME280;22233;42.708;23.360;2024-03-02T03:41:36;94794.63;;;10.91;72.16
36192;BME280;22233;42.708;23.360;2024-03-02T03:44:01;94800.94;;;10.74;72.07
36192;BME280;22233;42.708;23.360;2024-03-02T03:46:26;94793.47;;;10.92;71.85
36192;BME280;22233;42.708;23.360;2024-03-02T03:48:52;94782.66;;;10.63;72.93
36192;BME280;22233;42.708;23.360;2024-03-02T03:51:17;94787.81;;;10.76;71.73
36192;BME280;22233;42.708;23.360;2024-03-02T03:53:43;94790.72;;;11.01;71.04
36192;BME280;22233;42.708;23.360;2024-03-02T03:56:08;94788.50;;;10.94;71.14
36192;BME280;22233;42.708;23.360;2024-03-02T03:58:33;94774.38;;;10.80;71.77
36192;BME280;22233;42.708;23.360;2024-03-02T04:00:59;94779.34;;;10.48;72.29
36192;BME280;22233;42.708;23.360;2024-03-02T04:03:24;94779.03;;;10.79;72.33
36192;BME280;22233;42.708;23.360;2024-03-02T04:05:50;94785.00;;;10.94;70.92
36192;BME280;22233;42.708;23.360;2024-03-02T04:08:15;94769.63;;;10.98;70.78
36192;BME280;22233;42.708;23.360;2024-03-02T04:10:41;94788.03;;;10.92;71.64
36192;BME280;22233;42.708;23.360;2024-03-02T04:13:07;94779.66;;;10.76;72.19
36192;BME280;22233;42.708;23.360;2024-03-02T04:15:33;94778.69;;;10.81;72.77
36192;BME280;22233;42.708;23.360;2024-03-02T04:17:58;94784.34;;;10.97;72.31
36192;BME280;22233;42.708;23.360;2024-03-02T04:20:23;94781.28;;;10.98;71.64
36192;BME280;22233;42.708;23.360;2024-03-02T04:22:49;94782.03;;;10.87;71.86
36192;BME280;22233;42.708;23.360;2024-03-02T04:25:14;94781.44;;;10.72;71.59
36192;BME280;22233;42.708;23.360;2024-03-02T04:27:39;94761.03;;;10.66;72.83
36192;BME280;22233;42.708;23.360;2024-03-02T04:30:05;94788.72;;;10.89;72.09
36192;BME280;22233;42.708;23.360;2024-03-02T04:32:31;94771.06;;;10.74;72.88
36192;BME280;22233;42.708;23.360;2024-03-02T04:34:56;94787.72;;;10.73;72.56
36192;BME280;22233;42.708;23.360;2024-03-02T04:37:22;94787.16;;;10.58;73.10
36192;BME280;22233;42.708;23.360;2024-03-02T04:39:48;94791.06;;;10.70;73.72
36192;BME280;22233;42.708;23.360;2024-03-02T04:42:13;94790.53;;;10.76;73.37
36192;BME280;22233;42.708;23.360;2024-03-02T04:44:38;94789.88;;;10.50;73.04
36192;BME280;22233;42.708;23.360;2024-03-02T04:47:04;94771.66;;;10.59;72.92
36192;BME280;22233;42.708;23.360;2024-03-02T04:49:30;94790.03;;;10.83;72.69
36192;BME280;22233;42.708;23.360;2024-03-02T04:51:56;94781.41;;;10.81;72.81
36192;BME280;22233;42.708;23.360;2024-03-02T04:54:22;94788.03;;;10.71;73.29
36192;BME280;22233;42.708;23.360;2024-03-02T04:56:47;94796.09;;;10.89;72.80
36192;BME280;22233;42.708;23.360;2024-03-02T04:59:18;94797.03;;;10.63;74.62
36192;BME280;22233;42.708;23.360;2024-03-02T05:01:44;94799.06;;;10.66;73.96
36192;BME280;22233;42.708;23.360;2024-03-02T05:04:10;94799.75;;;10.84;73.03
36192;BME280;22233;42.708;23.360;2024-03-02T05:06:39;94811.34;;;10.72;73.75
36192;BME280;22233;42.708;23.360;2024-03-02T05:09:10;94804.88;;;10.86;73.51
36192;BME280;22233;42.708;23.360;2024-03-02T05:11:35;94791.28;;;10.65;74.27
36192;BME280;22233;42.708;23.360;2024-03-02T05:14:07;94816.03;;;10.63;74.03
36192;BME280;22233;42.708;23.360;2024-03-02T05:16:33;94816.34;;;10.62;75.17
36192;BME280;22233;42.708;23.360;2024-03-02T05:18:59;94815.00;;;10.47;75.24
36192;BME280;22233;42.708;23.360;2024-03-02T05:21:24;94812.50;;;10.24;76.49
36192;BME280;22233;42.708;23.360;2024-03-02T05:23:49;94810.75;;;10.28;75.97
36192;BME280;22233;42.708;23.360;2024-03-02T05:26:15;94816.16;;;10.37;75.25
36192;BME280;22233;42.708;23.360;2024-03-02T05:28:40;94815.28;;;10.54;74.45
36192;BME280;22233;42.708;23.360;2024-03-02T05:31:05;94819.56;;;10.16;76.65
36192;BME280;22233;42.708;23.360;2024-03-02T05:33:31;94814.72;;;10.22;76.68
36192;BME280;22233;42.708;23.360;2024-03-02T05:35:58;94826.34;;;10.40;76.01
36192;BME280;22233;42.708;23.360;2024-03-02T05:38:23;94816.91;;;10.46;76.24
36192;BME280;22233;42.708;23.360;2024-03-02T05:40:49;94833.97;;;10.55;75.54
36192;BME280;22233;42.708;23.360;2024-03-02T05:43:14;94840.06;;;10.52;75.47
36192;BME280;22233;42.708;23.360;2024-03-02T05:45:39;94838.13;;;10.53;76.07
36192;BME280;22233;42.708;23.360;2024-03-02T05:48:08;94845.84;;;10.81;74.63
36192;BME280;22233;42.708;23.360;2024-03-02T05:50:34;94846.78;;;10.85;74.35
36192;BME280;22233;42.708;23.360;2024-03-02T05:52:59;94854.91;;;10.85;75.46
36192;BME280;22233;42.708;23.360;2024-03-02T05:55:25;94844.38;;;10.83;73.90
36192;BME280;22233;42.708;23.360;2024-03-02T05:57:50;94847.00;;;10.71;75.31
36192;BME280;22233;42.708;23.360;2024-03-02T06:00:31;94851.78;;;10.35;76.45
36192;BME280;22233;42.708;23.360;2024-03-02T06:02:56;94844.41;;;10.45;75.86
36192;BME280;22233;42.708;23.360;2024-03-02T06:05:21;94850.41;;;10.59;75.28
36192;BME280;22233;42.708;23.360;2024-03-02T06:07:47;94843.03;;;10.59;75.01
36192;BME280;22233;42.708;23.360;2024-03-02T06:10:12;94837.03;;;10.45;75.87
36192;BME280;22233;42.708;23.360;2024-03-02T06:12:38;94842.44;;;10.54;75.98
36192;BME280;22233;42.708;23.360;2024-03-02T06:15:03;94821.13;;;10.26;75.39
36192;BME280;22233;42.708;23.360;2024-03-02T06:17:29;94842.00;;;10.43;76.44
36192;BME280;22233;42.708;23.360;2024-03-02T06:19:54;94829.09;;;10.31;76.88
36192;BME280;22233;42.708;23.360;2024-03-02T06:22:20;94857.09;;;10.62;75.83
36192;BME280;22233;42.708;23.360;2024-03-02T06:24:46;94846.56;;;10.60;76.24
36192;BME280;22233;42.708;23.360;2024-03-02T06:27:11;94844.59;;;10.31;76.79
36192;BME280;22233;42.708;23.360;2024-03-02T06:29:37;94852.53;;;10.45;76.95
36192;BME280;22233;42.708;23.360;2024-03-02T06:32:02;94857.00;;;10.49;76.68
36192;BME280;22233;42.708;23.360;2024-03-02T06:34:28;94858.28;;;10.43;76.36
36192;BME280;22233;42.708;23.360;2024-03-02T06:36:53;94858.34;;;10.64;76.15
36192;BME280;22233;42.708;23.360;2024-03-02T06:39:18;94866.84;;;10.63;77.10
36192;BME280;22233;42.708;23.360;2024-03-02T06:41:44;94870.75;;;10.83;74.92
36192;BME280;22233;42.708;23.360;2024-03-02T06:44:09;94855.78;;;10.68;75.14
36192;BME280;22233;42.708;23.360;2024-03-02T06:46:34;94875.88;;;10.75;75.71
36192;BME280;22233;42.708;23.360;2024-03-02T06:49:00;94868.25;;;10.69;75.34
36192;BME280;22233;42.708;23.360;2024-03-02T06:51:27;94855.03;;;10.58;76.05
36192;BME280;22233;42.708;23.360;2024-03-02T06:53:53;94858.72;;;10.63;76.02
36192;BME280;22233;42.708;23.360;2024-03-02T06:56:18;94858.81;;;10.36;77.04
36192;BME280;22233;42.708;23.360;2024-03-02T06:58:43;94874.00;;;10.67;76.39
36192;BME280;22233;42.708;23.360;2024-03-02T07:01:09;94870.50;;;10.67;76.50
36192;BME280;22233;42.708;23.360;2024-03-02T07:03:35;94859.84;;;10.53;76.33
36192;BME280;22233;42.708;23.360;2024-03-02T07:06:00;94868.84;;;10.45;76.21
36192;BME280;22233;42.708;23.360;2024-03-02T07:08:25;94870.53;;;10.58;77.06
36192;BME280;22233;42.708;23.360;2024-03-02T07:10:51;94879.88;;;10.78;75.03
36192;BME280;22233;42.708;23.360;2024-03-02T07:13:16;94885.59;;;10.85;75.20
36192;BME280;22233;42.708;23.360;2024-03-02T07:15:42;94892.25;;;10.96;75.74
36192;BME280;22233;42.708;23.360;2024-03-02T07:18:30;94869.22;;;10.64;75.78
36192;BME280;22233;42.708;23.360;2024-03-02T07:20:56;94876.25;;;10.65;75.89
36192;BME280;22233;42.708;23.360;2024-03-02T07:23:26;94875.75;;;10.72;75.81
36192;BME280;22233;42.708;23.360;2024-03-02T07:25:56;94892.19;;;10.75;75.94
36192;BME280;22233;42.708;23.360;2024-03-02T07:28:22;94886.47;;;10.68;76.12
36192;BME280;22233;42.708;23.360;2024-03-02T07:30:50;94891.16;;;10.59;76.67
36192;BME280;22233;42.708;23.360;2024-03-02T07:33:22;94891.31;;;10.54;76.95
36192;BME280;22233;42.708;23.360;2024-03-02T07:35:48;94896.16;;;10.39;76.93
36192;BME280;22233;42.708;23.360;2024-03-02T07:38:13;94895.66;;;10.46;76.91
36192;BME280;22233;42.708;23.360;2024-03-02T07:40:38;94900.75;;;10.48;77.21
36192;BME280;22233;42.708;23.360;2024-03-02T07:43:04;94887.66;;;10.50;76.51
36192;BME280;22233;42.708;23.360;2024-03-02T07:45:30;94877.81;;;10.36;76.85
36192;BME280;22233;42.708;23.360;2024-03-02T07:47:55;94887.84;;;10.27;77.58
36192;BME280;22233;42.708;23.360;2024-03-02T07:50:20;94881.59;;;10.44;76.92
36192;BME280;22233;42.708;23.360;2024-03-02T07:52:46;94897.88;;;10.53;76.96
36192;BME280;22233;42.708;23.360;2024-03-02T07:55:11;94901.06;;;10.55;76.40
36192;BME280;22233;42.708;23.360;2024-03-02T07:57:37;94898.50;;;10.58;76.64
36192;BME280;22233;42.708;23.360;2024-03-02T08:00:02;94910.31;;;11.52;88.42
36192;BME280;22233;42.708;23.360;2024-03-02T08:02:28;94910.63;;;11.50;77.21
36192;BME280;22233;42.708;23.360;2024-03-02T08:04:53;94910.50;;;11.47;75.82
36192;BME280;22233;42.708;23.360;2024-03-02T08:07:18;94905.31;;;11.33;75.20
36192;BME280;22233;42.708;23.360;2024-03-02T08:09:44;94901.78;;;11.32;74.17
36192;BME280;22233;42.708;23.360;2024-03-02T08:12:09;94910.47;;;11.26;74.04
36192;BME280;22233;42.708;23.360;2024-03-02T08:14:34;94903.34;;;11.12;74.92
36192;BME280;22233;42.708;23.360;2024-03-02T08:17:00;94918.09;;;11.11;74.28
36192;BME280;22233;42.708;23.360;2024-03-02T08:19:26;94911.84;;;11.11;74.59
36192;BME280;22233;42.708;23.360;2024-03-02T08:21:52;94912.72;;;10.94;76.10
36192;BME280;22233;42.708;23.360;2024-03-02T08:24:17;94910.38;;;11.13;75.48
36192;BME280;22233;42.708;23.360;2024-03-02T08:26:43;94912.66;;;11.03;76.17
36192;BME280;22233;42.708;23.360;2024-03-02T08:29:08;94894.50;;;10.94;75.58
36192;BME280;22233;42.708;23.360;2024-03-02T08:31:33;94916.84;;;11.00;75.70
36192;BME280;22233;42.708;23.360;2024-03-02T08:34:00;94907.97;;;10.91;76.00
36192;BME280;22233;42.708;23.360;2024-03-02T08:36:25;94883.06;;;10.80;76.21
36192;BME280;22233;42.708;23.360;2024-03-02T08:38:51;94906.28;;;11.07;76.13
36192;BME280;22233;42.708;23.360;2024-03-02T08:41:16;94909.63;;;11.04;75.52
36192;BME280;22233;42.708;23.360;2024-03-02T08:43:42;94906.81;;;11.22;75.13
36192;BME280;22233;42.708;23.360;2024-03-02T08:46:07;94902.88;;;11.10;75.87
36192;BME280;22233;42.708;23.360;2024-03-02T08:48:33;94914.09;;;11.09;75.82
36192;BME280;22233;42.708;23.360;2024-03-02T08:50:59;94911.72;;;11.07;74.91
36192;BME280;22233;42.708;23.360;2024-03-02T08:53:24;94912.25;;;11.22;76.65
36192;BME280;22233;42.708;23.360;2024-03-02T08:55:50;94906.28;;;10.98;75.88
36192;BME280;22233;42.708;23.360;2024-03-02T08:58:15;94913.66;;;10.98;76.44
36192;BME280;22233;42.708;23.360;2024-03-02T09:00:41;94912.50;;;11.08;77.14
36192;BME280;22233;42.708;23.360;2024-03-02T09:03:07;94900.91;;;11.19;75.42
36192;BME280;22233;42.708;23.360;2024-03-02T09:05:33;94900.53;;;11.30;75.54
36192;BME280;22233;42.708;23.360;2024-03-02T09:07:58;94895.09;;;11.30;75.50
36192;BME280;22233;42.708;23.360;2024-03-02T09:10:23;94901.16;;;11.35;75.35
36192;BME280;22233;42.708;23.360;2024-03-02T09:12:48;94910.38;;;11.43;74.75
36192;BME280;22233;42.708;23.360;2024-03-02T09:15:14;94911.63;;;11.46;75.23
36192;BME280;22233;42.708;23.360;2024-03-02T09:17:40;94919.94;;;11.49;75.43
36192;BME280;22233;42.708;23.360;2024-03-02T09:20:06;94909.22;;;11.44;74.36
36192;BME280;22233;42.708;23.360;2024-03-02T09:22:31;94927.03;;;11.63;74.80
36192;BME280;22233;42.708;23.360;2024-03-02T09:24:57;94929.75;;;11.63;73.66
36192;BME280;22233;42.708;23.360;2024-03-02T09:27:23;94926.16;;;11.71;73.93
36192;BME280;22233;42.708;23.360;2024-03-02T09:29:48;94927.69;;;11.59;73.64
36192;BME280;22233;42.708;23.360;2024-03-02T09:32:14;94933.06;;;11.47;74.17
36192;BME280;22233;42.708;23.360;2024-03-02T09:34:40;94911.97;;;11.44;73.43
36192;BME280;22233;42.708;23.360;2024-03-02T09:37:06;94918.94;;;11.54;73.88
36192;BME280;22233;42.708;23.360;2024-03-02T09:39:31;94930.22;;;11.65;74.53
36192;BME280;22233;42.708;23.360;2024-03-02T09:41:58;94929.16;;;11.57;75.04
36192;BME280;22233;42.708;23.360;2024-03-02T09:44:24;94926.94;;;11.50;75.02
36192;BME280;22233;42.708;23.360;2024-03-02T09:46:50;94927.22;;;11.57;74.83
36192;BME280;22233;42.708;23.360;2024-03-02T09:49:16;94915.88;;;11.55;74.64
36192;BME280;22233;42.708;23.360;2024-03-02T09:51:47;94932.41;;;11.71;74.21
36192;BME280;22233;42.708;23.360;2024-03-02T09:54:12;94918.75;;;11.59;74.15
36192;BME280;22233;42.708;23.360;2024-03-02T09:56:38;94925.63;;;11.35;75.07
36192;BME280;22233;42.708;23.360;2024-03-02T09:59:04;94926.44;;;11.57;75.19
36192;BME280;22233;42.708;23.360;2024-03-02T10:01:30;94922.31;;;11.72;74.45
36192;BME280;22233;42.708;23.360;2024-03-02T10:03:59;94926.91;;;11.80;73.65
36192;BME280;22233;42.708;23.360;2024-03-02T10:06:26;94937.31;;;11.78;74.28
36192;BME280;22233;42.708;23.360;2024-03-02T10:08:53;94894.25;;;11.80;72.85
36192;BME280;22233;42.708;23.360;2024-03-02T10:11:34;94931.84;;;12.08;72.30
36192;BME280;22233;42.708;23.360;2024-03-02T10:14:12;94914.75;;;11.98;73.11
36192;BME280;22233;42.708;23.360;2024-03-02T10:16:41;94936.53;;;11.98;73.93
36192;BME280;22233;42.708;23.360;2024-03-02T10:19:22;94936.53;;;11.98;73.33
36192;BME280;22233;42.708;23.360;2024-03-02T10:21:49;94930.91;;;12.04;73.35
36192;BME280;22233;42.708;23.360;2024-03-02T10:24:16;94936.22;;;12.00;73.74
36192;BME280;22233;42.708;23.360;2024-03-02T10:26:41;94923.25;;;11.97;73.99
36192;BME280;22233;42.708;23.360;2024-03-02T10:29:09;94915.47;;;11.87;74.69
36192;BME280;22233;42.708;23.360;2024-03-02T10:31:38;94916.75;;;12.10;74.22
36192;BME280;22233;42.708;23.360;2024-03-02T10:34:05;94925.28;;;12.21;73.80
36192;BME280;22233;42.708;23.360;2024-03-02T10:36:34;94927.53;;;12.40;73.51
36192;BME280;22233;42.708;23.360;2024-03-02T10:39:04;94923.78;;;12.11;74.17
36192;BME280;22233;42.708;23.360;2024-03-02T10:41:34;94925.59;;;12.41;73.51
36192;BME280;22233;42.708;23.360;2024-03-02T10:44:02;94910.28;;;12.15;72.49
36192;BME280;22233;42.708;23.360;2024-03-02T10:46:30;94916.47;;;12.03;72.78
36192;BME280;22233;42.708;23.360;2024-03-02T10:48:56;94917.16;;;12.00;72.86
36192;BME280;22233;42.708;23.360;2024-03-02T10:51:24;94917.63;;;12.02;73.30
36192;BME280;22233;42.708;23.360;2024-03-02T10:53:50;94916.38;;;11.99;72.48
36192;BME280;22233;42.708;23.360;2024-03-02T10:56:22;94921.53;;;12.13;72.78
36192;BME280;22233;42.708;23.360;2024-03-02T10:58:58;94905.59;;;12.36;72.39
36192;BME280;22233;42.708;23.360;2024-03-02T11:01:26;94905.59;;;12.36;73.05
36192;BME280;22233;42.708;23.360;2024-03-02T11:03:54;94889.47;;;12.31;73.71
36192;BME280;22233;42.708;23.360;2024-03-02T11:06:22;94897.53;;;12.28;73.33
36192;BME280;22233;42.708;23.360;2024-03-02T11:08:49;94902.69;;;12.08;72.45
36192;BME280;22233;42.708;23.360;2024-03-02T11:11:22;94912.97;;;12.03;73.40
36192;BME280;22233;42.708;23.360;2024-03-02T11:13:52;94911.84;;;12.04;73.97
36192;BME280;22233;42.708;23.360;2024-03-02T11:16:35;94902.38;;;12.22;72.16
36192;BME280;22233;42.708;23.360;2024-03-02T11:19:12;94901.66;;;12.13;73.41
36192;BME280;22233;42.708;23.360;2024-03-02T11:21:38;94901.84;;;11.95;73.27
36192;BME280;22233;42.708;23.360;2024-03-02T11:26:59;94901.34;;;12.14;73.46
36192;BME280;22233;42.708;23.360;2024-03-02T11:34:33;94880.91;;;12.08;72.60
36192;BME280;22233;42.708;23.360;2024-03-02T11:36:59;94907.94;;;12.13;73.07
36192;BME280;22233;42.708;23.360;2024-03-02T11:39:26;94882.06;;;12.19;72.22
36192;BME280;22233;42.708;23.360;2024-03-02T11:41:52;94886.00;;;12.10;72.74
36192;BME280;22233;42.708;23.360;2024-03-02T11:44:17;94895.56;;;12.16;72.18
36192;BME280;22233;42.708;23.360;2024-03-02T11:46:45;94900.03;;;12.33;72.57
36192;BME280;22233;42.708;23.360;2024-03-02T11:49:14;94904.50;;;12.16;72.77
36192;BME280;22233;42.708;23.360;2024-03-02T11:51:51;94896.50;;;12.32;72.38
36192;BME280;22233;42.708;23.360;2024-03-02T11:54:18;94903.75;;;12.28;72.61
36192;BME280;22233;42.708;23.360;2024-03-02T11:56:44;94902.44;;;12.47;72.34
36192;BME280;22233;42.708;23.360;2024-03-02T11:59:10;94887.28;;;12.25;73.26
36192;BME280;22233;42.708;23.360;2024-03-02T12:01:35;94893.81;;;12.45;73.20
36192;BME280;22233;42.708;23.360;2024-03-02T12:04:01;94880.66;;;12.47;72.35
36192;BME280;22233;42.708;23.360;2024-03-02T12:06:27;94892.03;;;12.61;72.30
36192;BME280;22233;42.708;23.360;2024-03-02T12:08:53;94885.19;;;12.43;72.16
36192;BME280;22233;42.708;23.360;2024-03-02T12:11:20;94884.25;;;12.26;72.49
36192;BME280;22233;42.708;23.360;2024-03-02T12:13:52;94860.13;;;12.04;72.91
36192;BME280;22233;42.708;23.360;2024-03-02T12:16:24;94888.25;;;12.41;73.02
36192;BME280;22233;42.708;23.360;2024-03-02T12:18:50;94890.97;;;12.41;72.34
36192;BME280;22233;42.708;23.360;2024-03-02T12:21:15;94886.34;;;12.42;71.07
36192;BME280;22233;42.708;23.360;2024-03-02T12:23:40;94892.91;;;12.53;71.03
36192;BME280;22233;42.708;23.360;2024-03-02T12:26:06;94898.00;;;12.42;72.37
36192;BME280;22233;42.708;23.360;2024-03-02T12:28:33;94892.25;;;12.56;71.66
36192;BME280;22233;42.708;23.360;2024-03-02T12:30:59;94890.19;;;12.53;70.75
36192;BME280;22233;42.708;23.360;2024-03-02T12:33:24;94896.34;;;12.50;70.91
36192;BME280;22233;42.708;23.360;2024-03-02T12:35:50;94884.75;;;12.53;70.58
36192;BME280;22233;42.708;23.360;2024-03-02T12:38:15;94897.72;;;12.56;69.52
36192;BME280;22233;42.708;23.360;2024-03-02T12:40:40;94887.50;;;12.77;69.33
36192;BME280;22233;42.708;23.360;2024-03-02T12:43:06;94891.06;;;12.32;70.23
36192;BME280;22233;42.708;23.360;2024-03-02T12:45:35;94887.47;;;12.53;71.32
36192;BME280;22233;42.708;23.360;2024-03-02T12:48:00;94891.91;;;12.57;71.34
36192;BME280;22233;42.708;23.360;2024-03-02T12:50:27;94892.84;;;12.62;70.18
36192;BME280;22233;42.708;23.360;2024-03-02T12:52:53;94889.53;;;12.56;69.70
36192;BME280;22233;42.708;23.360;2024-03-02T12:55:20;94890.19;;;12.41;71.45
36192;BME280;22233;42.708;23.360;2024-03-02T12:57:47;94890.31;;;12.11;73.10